Guangchang, China
Current Conditions -  °F | °C
As of 1:00 AM on Friday 28 Nov 2014 (Local Time) from ZSAM Reporting Station
Haze Haze  
Wind Chill: 68°   Ceiling: Unl
Heat Index: 68°   Visibility: 1.7mi
Dew Point: 68°   Wind: 2mph
Humidity: 100%   Direction: NA
Pressure: 30"   Gusts: NA
Location:  26.85°N, 116.33°E
Report Text: ZSAM 271700Z VRB01MPS 2800 BR SCT050 20/20 Q1016 BECMGTL18303200 BR
Loading
Personal Weather Stations






























Interactive Weather Map New forecast layout! Learn more

10-Day Weather Forecast

Advertisements
Track Severe Weather on mobile